Time;durP1;ratioP1;P1;durP2;ratioP2;P2;SDS_P1;SDS_P2;PMS_P1;PMS_P2;Temp;Humidity;BMP_temperature;BMP_pressure;BME280_temperature;BME280_humidity;BME280_pressure;Samples;Min_cycle;Max_cycle;Signal;HPM_P1;HPM_P2
2023/04/18 00:00:49;;;;;;;10.30;6.70;;;;;;;11.67;76.22;99281.75;223471;182;146960;-61
2023/04/18 00:05:52;;;;;;;8.90;6.30;;;;;;;11.63;76.30;99275.60;223594;183;138641;-61
2023/04/18 00:10:55;;;;;;;9.00;5.70;;;;;;;11.65;76.24;99274.98;223505;183;138147;-61
2023/04/18 00:15:58;;;;;;;9.30;5.50;;;;;;;11.60;76.29;99271.49;223493;183;148129;-61
2023/04/18 00:21:02;;;;;;;9.20;5.80;;;;;;;11.64;76.33;99267.58;223542;183;141581;-63
2023/04/18 00:26:05;;;;;;;9.10;6.40;;;;;;;11.70;76.29;99268.98;223610;183;140892;-63
2023/04/18 00:31:09;;;;;;;11.00;6.80;;;;;;;11.72;75.86;99276.65;223642;183;147236;-61
2023/04/18 00:36:12;;;;;;;9.10;6.60;;;;;;;11.66;75.79;99284.12;223517;182;138206;-61
2023/04/18 00:41:17;;;;;;;8.50;6.40;;;;;;;11.61;75.79;99281.79;223609;183;136696;-62
2023/04/18 00:46:20;;;;;;;8.00;5.70;;;;;;;11.57;75.88;99285.24;223642;183;147455;-63
2023/04/18 00:51:24;;;;;;;7.00;5.20;;;;;;;11.55;75.86;99286.96;223649;183;138424;-62
2023/04/18 00:56:28;;;;;;;7.90;5.80;;;;;;;11.57;75.77;99288.77;223611;183;138149;-62
2023/04/18 01:01:32;;;;;;;6.00;5.10;;;;;;;11.57;75.56;99294.11;223594;183;146978;-62
2023/04/18 01:06:36;;;;;;;6.90;5.40;;;;;;;11.58;75.44;99293.73;223552;183;139456;-62
2023/04/18 01:11:39;;;;;;;8.10;5.90;;;;;;;11.56;75.36;99290.95;223616;184;136616;-63
2023/04/18 01:16:46;;;;;;;6.50;4.60;;;;;;;11.54;75.42;99290.58;223574;183;147682;-60
2023/04/18 01:22:12;;;;;;;5.80;5.10;;;;;;;11.52;75.39;99298.69;223539;183;139994;-58
2023/04/18 01:27:15;;;;;;;7.00;5.10;;;;;;;11.55;75.47;99304.38;223577;183;138529;-64
2023/04/18 01:32:19;;;;;;;6.60;5.30;;;;;;;11.62;75.45;99303.21;223644;183;146921;-61
2023/04/18 01:37:22;;;;;;;7.50;5.70;;;;;;;11.64;75.20;99303.45;223677;183;138322;-63
2023/04/18 01:42:25;;;;;;;7.80;5.80;;;;;;;11.63;75.31;99302.09;223653;183;137859;-66
2023/04/18 01:47:28;;;;;;;7.20;5.60;;;;;;;11.62;75.39;99300.03;223707;183;146903;-62
2023/04/18 01:52:32;;;;;;;8.90;5.40;;;;;;;11.64;75.53;99302.91;223537;183;139023;-61
2023/04/18 01:57:35;;;;;;;9.60;6.60;;;;;;;11.68;75.60;99302.16;223664;183;138439;-60
2023/04/18 02:02:38;;;;;;;9.50;6.40;;;;;;;11.74;75.53;99299.45;223601;183;148889;-61
2023/04/18 02:07:42;;;;;;;10.30;6.70;;;;;;;11.74;75.44;99300.14;223479;183;138883;-60
2023/04/18 02:12:45;;;;;;;9.60;6.80;;;;;;;11.74;75.44;99304.24;223611;183;138243;-61
2023/04/18 02:17:49;;;;;;;8.00;6.80;;;;;;;11.68;75.52;99304.64;223635;180;147206;-60
2023/04/18 02:22:52;;;;;;;9.50;7.10;;;;;;;11.66;75.71;99304.79;223531;183;138434;-60
2023/04/18 02:27:57;;;;;;;10.50;7.30;;;;;;;11.63;75.81;99308.13;223654;183;137546;-61
2023/04/18 02:33:00;;;;;;;10.20;8.30;;;;;;;11.59;75.89;99308.55;223685;183;147103;-61
2023/04/18 02:38:03;;;;;;;11.30;9.30;;;;;;;11.60;76.01;99306.20;223708;183;140821;-60
2023/04/18 02:43:07;;;;;;;12.70;9.90;;;;;;;11.53;75.99;99304.46;223674;184;137227;-60
2023/04/18 02:48:10;;;;;;;11.30;9.00;;;;;;;11.51;76.08;99307.29;223611;183;147994;-60
2023/04/18 02:53:13;;;;;;;12.30;8.80;;;;;;;11.50;76.12;99307.50;223576;183;141703;-62
2023/04/18 02:58:26;;;;;;;14.40;9.00;;;;;;;11.53;76.14;99311.05;223566;184;137965;-63
2023/04/18 03:03:29;;;;;;;12.90;9.30;;;;;;;11.58;76.16;99322.81;223658;183;147090;-64
2023/04/18 03:08:51;;;;;;;13.60;9.70;;;;;;;11.59;75.96;99324.70;223580;183;139109;-65
2023/04/18 03:13:54;;;;;;;12.20;9.80;;;;;;;11.58;75.90;99323.54;223699;183;137169;-64
2023/04/18 03:18:58;;;;;;;12.70;9.00;;;;;;;11.52;75.84;99320.92;223586;183;147642;-64
2023/04/18 03:24:04;;;;;;;11.80;9.00;;;;;;;11.45;75.96;99326.67;223647;183;138450;-63
2023/04/18 03:29:08;;;;;;;12.70;9.60;;;;;;;11.43;76.01;99326.27;223625;183;138873;-64
2023/04/18 03:34:12;;;;;;;15.60;10.30;;;;;;;11.43;75.88;99327.13;223627;183;148349;-59
2023/04/18 03:39:16;;;;;;;14.70;10.10;;;;;;;11.41;75.74;99331.52;223530;183;138894;-59
2023/04/18 03:44:19;;;;;;;13.20;10.60;;;;;;;11.38;75.71;99337.55;223713;183;137476;-59
2023/04/18 03:49:22;;;;;;;15.70;10.20;;;;;;;11.38;75.70;99338.64;223651;183;147092;-60
2023/04/18 03:54:26;;;;;;;14.30;9.70;;;;;;;11.35;75.50;99346.60;223622;183;139072;-61
2023/04/18 03:59:29;;;;;;;11.50;9.00;;;;;;;11.35;75.47;99343.08;223627;183;138912;-60
2023/04/18 04:04:37;;;;;;;14.40;10.20;;;;;;;11.36;75.24;99348.02;223490;184;147553;-63
2023/04/18 04:09:40;;;;;;;15.10;9.80;;;;;;;11.37;75.00;99349.52;223563;183;138232;-63
2023/04/18 04:14:44;;;;;;;13.30;9.80;;;;;;;11.33;74.84;99358.48;223627;183;137863;-62
2023/04/18 04:19:49;;;;;;;15.90;10.60;;;;;;;11.29;74.59;99359.95;223660;183;147130;-62
2023/04/18 04:24:56;;;;;;;13.20;9.00;;;;;;;11.25;74.32;99373.17;223640;183;138543;-61
2023/04/18 04:30:03;;;;;;;13.30;8.10;;;;;;;11.19;74.44;99379.24;223726;184;138024;-61
2023/04/18 04:35:07;;;;;;;13.90;9.30;;;;;;;11.19;74.61;99386.86;223674;183;146996;-61
2023/04/18 04:40:11;;;;;;;17.50;9.90;;;;;;;11.25;74.66;99393.41;223641;183;139535;-61
2023/04/18 04:45:22;;;;;;;12.80;9.50;;;;;;;11.27;74.41;99398.95;223605;184;139545;-62
2023/04/18 04:50:27;;;;;;;12.00;9.50;;;;;;;11.31;74.47;99407.11;223510;183;146923;-62
2023/04/18 04:55:31;;;;;;;11.30;9.00;;;;;;;11.34;74.33;99417.54;223570;183;138288;-61
2023/04/18 05:00:35;;;;;;;12.90;9.00;;;;;;;11.34;74.25;99424.14;223582;183;139354;-61
2023/04/18 05:05:38;;;;;;;12.30;9.00;;;;;;;11.36;74.20;99423.64;223623;183;147124;-60
2023/04/18 05:10:42;;;;;;;10.40;9.10;;;;;;;11.38;74.26;99432.61;223619;183;138173;-61
2023/04/18 05:15:45;;;;;;;15.40;10.20;;;;;;;11.47;74.25;99435.45;223686;183;137284;-59
2023/04/18 05:20:48;;;;;;;13.70;10.30;;;;;;;11.54;73.98;99434.31;223633;183;147264;-60
2023/04/18 05:25:51;;;;;;;17.30;11.00;;;;;;;11.54;73.76;99437.19;223570;183;139278;-62
2023/04/18 05:30:59;;;;;;;17.10;11.70;;;;;;;11.51;73.59;99430.21;223631;183;139215;-62
2023/04/18 05:36:08;;;;;;;15.30;10.30;;;;;;;11.49;73.50;99436.55;223675;183;147465;-63
2023/04/18 05:41:11;;;;;;;15.60;9.40;;;;;;;11.51;73.65;99439.29;223617;183;138960;-63
2023/04/18 05:46:14;;;;;;;13.70;10.60;;;;;;;11.58;73.33;99443.48;223641;183;137967;-63
2023/04/18 05:51:17;;;;;;;17.40;10.70;;;;;;;11.67;73.37;99446.73;223685;184;147165;-61
2023/04/18 05:56:20;;;;;;;19.50;11.90;;;;;;;11.74;72.98;99449.15;223570;183;138906;-62
2023/04/18 06:01:23;;;;;;;14.50;10.80;;;;;;;11.75;73.18;99444.98;223640;183;139466;-62
2023/04/18 06:06:27;;;;;;;117.60;87.20;;;;;;;11.79;72.88;99448.97;223550;183;148864;-61
2023/04/18 06:11:34;;;;;;;25.00;17.70;;;;;;;11.84;72.91;99459.20;223650;183;139078;-62
2023/04/18 06:16:37;;;;;;;17.20;9.90;;;;;;;11.83;72.64;99464.05;223642;183;138604;-61
2023/04/18 06:21:41;;;;;;;14.30;10.20;;;;;;;11.85;72.14;99467.89;223573;183;148116;-61
2023/04/18 06:26:44;;;;;;;14.90;10.60;;;;;;;11.86;71.89;99466.59;223661;183;138776;-62
2023/04/18 06:31:49;;;;;;;14.60;10.30;;;;;;;11.91;71.80;99468.41;223620;183;137677;-60
2023/04/18 06:36:53;;;;;;;12.60;10.00;;;;;;;11.92;71.17;99479.35;223689;183;147173;-61
2023/04/18 06:41:57;;;;;;;61.60;43.20;;;;;;;11.90;71.69;99481.09;223553;184;138361;-62
2023/04/18 06:47:04;;;;;;;15.30;10.30;;;;;;;12.02;73.24;99483.76;223558;183;137424;-64
2023/04/18 06:52:07;;;;;;;15.00;9.60;;;;;;;12.22;71.13;99492.11;223585;183;147677;-62
2023/04/18 06:57:10;;;;;;;13.40;10.20;;;;;;;12.20;70.67;99495.27;223551;183;138420;-62
2023/04/18 07:02:14;;;;;;;14.60;9.60;;;;;;;12.27;70.63;99498.20;223500;184;137548;-62
2023/04/18 07:07:18;;;;;;;13.80;9.80;;;;;;;12.27;70.06;99497.33;223582;183;146954;-60
2023/04/18 07:12:21;;;;;;;14.90;10.00;;;;;;;12.27;69.84;99502.63;223580;183;138301;-62
2023/04/18 07:17:24;;;;;;;14.40;9.90;;;;;;;12.29;69.81;99507.15;223721;183;138222;-63
2023/04/18 07:22:28;;;;;;;13.10;9.80;;;;;;;12.32;69.34;99510.17;223613;183;147203;-62
2023/04/18 07:27:34;;;;;;;12.90;8.90;;;;;;;12.35;69.65;99513.36;223461;183;139013;-63
2023/04/18 07:32:37;;;;;;;12.00;7.80;;;;;;;12.39;69.21;99508.64;223637;183;137960;-62
2023/04/18 07:37:41;;;;;;;12.80;7.60;;;;;;;12.43;68.96;99510.03;223602;183;147822;-63
2023/04/18 07:42:44;;;;;;;12.70;7.60;;;;;;;12.52;68.81;99512.84;223539;183;138954;-62
2023/04/18 07:47:47;;;;;;;14.70;8.20;;;;;;;12.67;68.66;99512.29;223682;183;137491;-61
2023/04/18 07:52:50;;;;;;;15.70;8.50;;;;;;;12.80;68.05;99507.70;223658;183;147905;-62
2023/04/18 07:57:53;;;;;;;11.70;8.10;;;;;;;12.98;67.77;99507.81;223673;183;138286;-61
2023/04/18 08:02:56;;;;;;;10.70;7.10;;;;;;;13.19;67.58;99507.84;223596;183;137920;-59
2023/04/18 08:07:59;;;;;;;13.00;6.90;;;;;;;13.36;66.96;99504.30;223597;183;147653;-64
2023/04/18 08:13:08;;;;;;;10.50;6.90;;;;;;;13.44;66.31;99503.92;223617;183;140306;-66
2023/04/18 08:18:11;;;;;;;11.60;6.50;;;;;;;13.50;65.67;99507.28;223635;183;140677;-61
2023/04/18 08:23:14;;;;;;;12.80;6.90;;;;;;;13.47;64.61;99506.94;223669;183;147396;-65
2023/04/18 08:28:17;;;;;;;13.90;7.10;;;;;;;13.52;64.61;99513.20;223661;183;138494;-62
2023/04/18 08:33:22;;;;;;;7.90;5.90;;;;;;;13.61;64.42;99512.74;223606;183;137788;-62
2023/04/18 08:38:26;;;;;;;14.10;6.70;;;;;;;13.65;64.07;99518.20;223525;184;147193;-62
2023/04/18 08:43:30;;;;;;;10.80;6.10;;;;;;;13.70;63.78;99516.45;223600;183;138091;-60
2023/04/18 08:48:33;;;;;;;10.50;5.90;;;;;;;13.82;63.24;99512.41;223606;183;138022;-60
2023/04/18 08:53:38;;;;;;;10.20;6.00;;;;;;;14.02;63.22;99508.42;223691;183;147954;-60
2023/04/18 08:58:43;;;;;;;8.90;5.20;;;;;;;14.18;61.83;99511.73;223548;183;139136;-58
2023/04/18 09:03:47;;;;;;;8.60;4.70;;;;;;;14.32;60.89;99512.21;223530;183;137118;-61
2023/04/18 09:09:02;;;;;;;9.00;5.50;;;;;;;14.46;60.07;99511.93;223561;183;147118;-64
2023/04/18 09:14:06;;;;;;;;;;;;;;;14.58;59.49;99509.52;223441;183;138556;-62
2023/04/18 09:19:17;;;;;;;8.20;4.60;;;;;;;14.62;58.16;99504.94;223521;183;131209;-64
2023/04/18 09:25:41;;;;;;;15.40;9.90;;;;;;;14.66;58.09;99502.88;221310;193;1675138;-62
2023/04/18 09:30:50;;;;;;;10.50;4.70;;;;;;;14.85;58.15;99498.08;222872;188;137471;-63
2023/04/18 09:35:54;;;;;;;9.50;4.80;;;;;;;15.05;57.29;99500.55;223115;187;143667;-63
2023/04/18 09:41:14;;;;;;;8.70;4.60;;;;;;;15.02;55.67;99500.84;223347;185;138345;-63
2023/04/18 09:46:21;;;;;;;6.90;4.20;;;;;;;15.08;56.10;99497.64;223376;185;136204;-62
2023/04/18 09:51:25;;;;;;;6.50;3.90;;;;;;;15.23;55.20;99495.46;223470;185;143537;-63
2023/04/18 09:56:30;;;;;;;29.20;22.30;;;;;;;15.40;55.42;99494.79;223338;185;138319;-62
2023/04/18 10:01:34;;;;;;;5.10;4.00;;;;;;;15.65;53.44;99498.13;223438;185;137259;-63
2023/04/18 10:06:40;;;;;;;8.00;4.20;;;;;;;15.85;52.64;99486.39;223380;184;143559;-63
2023/04/18 10:11:44;;;;;;;6.10;3.70;;;;;;;16.14;52.27;99486.48;223416;185;138361;-62
2023/04/18 10:16:48;;;;;;;7.50;3.30;;;;;;;16.21;49.90;99487.21;222752;184;137896;-61
2023/04/18 10:21:57;;;;;;;6.10;2.80;;;;;;;16.31;49.07;99482.09;222074;185;145763;-60
2023/04/18 10:27:00;;;;;;;6.50;3.50;;;;;;;16.43;48.51;99476.27;223325;185;139152;-61
2023/04/18 10:32:05;;;;;;;313.40;220.20;;;;;;;16.56;47.99;99474.41;223210;185;137679;-61
2023/04/18 10:37:11;;;;;;;14.80;9.30;;;;;;;16.66;47.77;99474.67;223306;186;145345;-62
2023/04/18 10:42:15;;;;;;;6.60;4.10;;;;;;;16.92;47.29;99473.19;223314;185;138459;-62
2023/04/18 10:47:19;;;;;;;5.10;2.60;;;;;;;17.11;46.62;99469.41;223381;186;138910;-62
2023/04/18 10:52:23;;;;;;;4.20;2.70;;;;;;;17.26;46.21;99459.76;223354;185;145300;-61
2023/04/18 10:57:40;;;;;;;5.50;3.10;;;;;;;17.40;45.51;99461.15;223231;186;138549;-62
2023/04/18 11:02:56;;;;;;;5.00;3.10;;;;;;;17.38;44.94;99461.79;223502;184;137384;-61
2023/04/18 11:07:59;;;;;;;5.40;3.10;;;;;;;17.35;44.81;99458.48;223385;184;147058;-62
2023/04/18 11:13:05;;;;;;;6.10;2.50;;;;;;;17.49;45.27;99458.59;223472;184;138547;-62
2023/04/18 11:18:08;;;;;;;4.60;2.40;;;;;;;17.72;44.80;99455.33;223389;181;136918;-62
2023/04/18 11:23:29;;;;;;;6.70;2.60;;;;;;;17.92;43.52;99460.64;223618;184;145374;-61
2023/04/18 11:28:32;;;;;;;6.10;3.40;;;;;;;18.13;43.13;99459.09;223536;184;138737;-61
2023/04/18 11:33:35;;;;;;;6.60;2.90;;;;;;;18.27;43.65;99452.48;223607;184;136747;-61
2023/04/18 11:38:39;;;;;;;6.20;3.00;;;;;;;18.37;43.49;99452.84;223611;183;145273;-61
2023/04/18 11:43:44;;;;;;;5.90;2.40;;;;;;;18.52;43.13;99452.42;223511;184;139020;-61
2023/04/18 11:48:49;;;;;;;6.00;2.90;;;;;;;18.53;41.62;99445.48;223673;184;136377;-61
2023/04/18 11:53:52;;;;;;;7.50;2.80;;;;;;;18.55;41.94;99440.28;223627;183;145381;-62
2023/04/18 11:59:09;;;;;;;3.70;2.60;;;;;;;18.55;41.24;99441.59;223549;184;138816;-61
2023/04/18 12:04:12;;;;;;;5.60;2.30;;;;;;;18.60;40.56;99436.64;223628;183;137303;-61
2023/04/18 12:09:17;;;;;;;3.70;2.50;;;;;;;18.60;39.46;99434.40;223532;184;145807;-61
2023/04/18 12:14:21;;;;;;;3.70;2.60;;;;;;;18.77;40.21;99428.29;223536;184;138437;-61
2023/04/18 12:19:26;;;;;;;5.70;2.70;;;;;;;18.91;39.87;99426.09;223576;184;136918;-61
2023/04/18 12:24:31;;;;;;;3.00;2.00;;;;;;;18.98;38.22;99421.56;223638;184;145053;-61
2023/04/18 12:29:34;;;;;;;3.50;1.90;;;;;;;18.97;37.14;99419.46;223590;184;138868;-61
2023/04/18 12:34:38;;;;;;;5.50;2.30;;;;;;;18.92;36.25;99418.25;223546;184;136479;-62
2023/04/18 12:39:41;;;;;;;4.00;2.10;;;;;;;18.84;36.58;99416.33;223621;184;145301;-61
2023/04/18 12:44:47;;;;;;;4.00;2.40;;;;;;;18.82;37.36;99414.13;223431;184;140699;-61
2023/04/18 12:49:50;;;;;;;4.70;2.50;;;;;;;18.88;37.21;99409.64;223594;183;136453;-61
2023/04/18 12:54:55;;;;;;;3.30;2.50;;;;;;;18.92;38.29;99404.97;223635;183;145113;-61
2023/04/18 12:59:58;;;;;;;5.90;2.50;;;;;;;19.00;36.93;99405.38;223586;184;138387;-61
2023/04/18 13:05:40;;;;;;;3.50;2.50;;;;;;;18.95;37.55;99399.68;220866;193;666402;-62
2023/04/18 13:10:46;;;;;;;5.60;2.30;;;;;;;18.95;37.99;99399.73;223213;187;136831;-63
2023/04/18 13:15:50;;;;;;;3.90;2.40;;;;;;;18.89;38.10;99395.77;223731;183;143556;-63
2023/04/18 13:20:53;;;;;;;8.30;2.50;;;;;;;18.80;37.94;99395.29;223655;183;139901;-62
2023/04/18 13:25:56;;;;;;;6.00;2.50;;;;;;;18.76;38.21;99396.19;223639;184;137192;-61
2023/04/18 13:30:59;;;;;;;6.00;1.90;;;;;;;18.70;37.28;99392.77;223678;183;143585;-62
2023/04/18 13:36:02;;;;;;;3.40;2.10;;;;;;;18.56;36.42;99393.86;223637;183;138121;-62
2023/04/18 13:41:05;;;;;;;10.10;2.60;;;;;;;18.50;36.82;99388.94;223590;184;136972;-62
2023/04/18 13:46:16;;;;;;;4.90;2.90;;;;;;;18.43;38.02;99389.39;223673;184;145053;-61
2023/04/18 13:51:19;;;;;;;8.20;3.40;;;;;;;18.40;39.64;99387.41;223693;183;138421;-61
2023/04/18 13:56:23;;;;;;;9.40;3.70;;;;;;;18.42;40.16;99387.86;223561;183;137202;-62
2023/04/18 14:01:26;;;;;;;9.20;3.10;;;;;;;18.34;39.79;99391.23;223618;183;145136;-62
2023/04/18 14:06:31;;;;;;;10.60;4.70;;;;;;;18.29;40.10;99389.11;223689;184;138236;-61
2023/04/18 14:11:34;;;;;;;8.80;3.30;;;;;;;18.21;40.37;99388.14;223598;183;137670;-62
2023/04/18 14:16:37;;;;;;;7.70;3.40;;;;;;;18.21;40.96;99381.48;223508;184;145854;-61
2023/04/18 14:21:41;;;;;;;7.20;3.30;;;;;;;18.30;41.50;99380.15;223585;184;138909;-61
2023/04/18 14:26:44;;;;;;;9.50;3.50;;;;;;;18.36;41.95;99379.09;223564;184;139379;-60
2023/04/18 14:31:47;;;;;;;6.90;2.60;;;;;;;18.26;41.08;99381.20;223604;184;145660;-61
2023/04/18 14:40:23;;;;;;;8.60;2.90;;;;;;;18.02;39.76;99384.27;219786;193;676776;-61
2023/04/18 14:45:27;;;;;;;8.00;3.30;;;;;;;17.86;40.32;99384.34;223212;187;136233;-62
2023/04/18 14:50:30;;;;;;;7.50;3.50;;;;;;;17.73;41.52;99383.29;223528;184;143329;-62
2023/04/18 14:55:33;;;;;;;8.30;3.10;;;;;;;17.64;41.85;99382.08;223597;184;138907;-62
2023/04/18 15:00:36;;;;;;;9.50;2.80;;;;;;;17.57;40.86;99381.60;223648;183;136288;-61
2023/04/18 15:05:41;;;;;;;7.80;3.20;;;;;;;17.55;40.05;99376.60;223627;185;143916;-62
2023/04/18 15:10:46;;;;;;;10.70;3.00;;;;;;;17.53;40.27;99376.09;223562;184;138972;-61
2023/04/18 15:15:53;;;;;;;6.20;3.40;;;;;;;17.52;41.25;99379.56;223581;184;136220;-62
2023/04/18 15:20:58;;;;;;;8.50;3.50;;;;;;;17.47;41.21;99383.72;223450;184;143555;-62
2023/04/18 15:26:01;;;;;;;;;;;;;;;17.35;41.13;99380.98;223387;185;138853;-62
2023/04/18 15:31:05;;;;;;;8.30;3.50;;;;;;;17.22;41.45;99385.64;223499;184;130542;-62
2023/04/18 15:36:08;;;;;;;7.20;3.60;;;;;;;17.11;41.77;99386.38;223507;185;145310;-61
2023/04/18 15:41:12;;;;;;;9.00;3.50;;;;;;;16.97;42.44;99387.80;223442;185;138916;-61
2023/04/18 15:46:15;;;;;;;9.60;3.70;;;;;;;17.01;45.26;99390.53;223416;185;136689;-61
2023/04/18 15:51:18;;;;;;;8.40;3.80;;;;;;;17.30;46.42;99390.02;223209;184;145349;-63
2023/04/18 15:56:23;;;;;;;6.80;4.10;;;;;;;17.57;46.51;99390.04;223367;184;141086;-62
2023/04/18 16:01:27;;;;;;;8.70;4.60;;;;;;;17.71;46.26;99394.25;223438;184;137464;-61
2023/04/18 16:06:30;;;;;;;9.40;4.30;;;;;;;17.76;45.41;99390.59;223403;184;147424;-63
2023/04/18 16:11:33;;;;;;;6.40;3.90;;;;;;;17.68;44.80;99386.41;223430;184;140517;-60
2023/04/18 16:16:37;;;;;;;7.90;4.40;;;;;;;17.53;44.17;99393.95;223463;184;137183;-60
2023/04/18 16:21:40;;;;;;;10.80;5.20;;;;;;;17.38;44.65;99392.55;223416;184;145621;-60
2023/04/18 16:26:43;;;;;;;9.10;4.50;;;;;;;17.47;45.54;99392.90;223400;184;138597;-60
2023/04/18 16:31:46;;;;;;;9.80;5.20;;;;;;;17.57;45.11;99390.48;223499;184;136499;-59
2023/04/18 16:36:50;;;;;;;8.70;5.20;;;;;;;17.55;44.89;99390.77;223585;184;145267;-61
2023/04/18 16:41:53;;;;;;;106.80;73.40;;;;;;;17.58;45.28;99391.07;223467;184;138429;-60
2023/04/18 16:46:56;;;;;;;12.80;7.50;;;;;;;17.54;44.55;99390.69;223397;184;138796;-59
2023/04/18 16:52:00;;;;;;;14.70;9.00;;;;;;;17.18;44.81;99392.17;223333;184;146534;-61
2023/04/18 16:57:03;;;;;;;17.80;11.30;;;;;;;17.26;46.55;99390.94;223257;187;140136;-62
2023/04/18 17:02:06;;;;;;;13.60;9.50;;;;;;;17.53;46.19;99386.13;223286;183;137191;-62
2023/04/18 17:07:10;;;;;;;16.70;9.30;;;;;;;17.67;46.34;99388.11;223237;184;145647;-61
2023/04/18 17:12:13;;;;;;;14.40;7.80;;;;;;;17.79;45.68;99388.43;223257;184;138730;-62
2023/04/18 17:17:16;;;;;;;10.20;7.00;;;;;;;17.77;45.63;99388.38;223363;218;137385;-59
2023/04/18 17:22:19;;;;;;;14.60;6.80;;;;;;;17.76;45.19;99386.28;223359;184;146214;-59
2023/04/18 17:27:25;;;;;;;12.10;6.50;;;;;;;17.34;45.19;99390.90;223325;184;139439;-58
2023/04/18 17:32:28;;;;;;;28.80;20.50;;;;;;;16.99;45.69;99389.94;223261;184;137016;-58
2023/04/18 17:37:31;;;;;;;9.80;6.40;;;;;;;16.72;45.96;99391.63;223296;184;145754;-58
2023/04/18 17:42:35;;;;;;;9.40;5.70;;;;;;;16.46;46.23;99396.89;223312;184;138073;-58
2023/04/18 17:47:39;;;;;;;12.60;6.20;;;;;;;16.26;46.65;99401.73;223359;206;136475;-58
2023/04/18 17:52:44;;;;;;;13.10;6.60;;;;;;;16.11;47.11;99404.91;223346;184;145154;-58
2023/04/18 17:57:47;;;;;;;14.00;6.90;;;;;;;15.98;47.96;99407.23;223402;185;138125;-56
2023/04/18 18:02:50;;;;;;;15.90;7.00;;;;;;;15.84;48.57;99411.48;223412;183;136870;-58
2023/04/18 18:07:55;;;;;;;343.10;251.80;;;;;;;15.74;49.17;99409.92;223845;218;145308;-59
2023/04/18 18:12:58;;;;;;;20.00;13.60;;;;;;;15.72;49.88;99409.39;223929;210;138496;-57
2023/04/18 18:18:01;;;;;;;70.00;54.80;;;;;;;15.63;50.85;99409.15;223909;207;129320;-59
2023/04/18 18:23:06;;;;;;;12.80;9.30;;;;;;;15.59;51.79;99410.56;223698;218;146845;-58
2023/04/18 18:28:09;;;;;;;14.20;8.60;;;;;;;15.49;52.32;99408.99;223693;210;138326;-60
2023/04/18 18:33:12;;;;;;;11.00;8.00;;;;;;;15.38;53.12;99410.14;222780;218;136835;-60
2023/04/18 18:38:17;;;;;;;15.20;8.60;;;;;;;15.31;53.72;99408.20;223277;218;145647;-59
2023/04/18 18:43:25;;;;;;;14.60;8.70;;;;;;;15.24;54.06;99403.89;223341;184;140269;-59
2023/04/18 18:48:28;;;;;;;206.60;169.80;;;;;;;15.21;54.42;99402.70;223369;184;137030;-59
2023/04/18 18:53:31;;;;;;;28.50;18.70;;;;;;;15.22;54.79;99411.27;223580;210;145724;-62
2023/04/18 18:58:34;;;;;;;17.70;9.90;;;;;;;15.16;54.87;99406.63;223454;216;139083;-59
2023/04/18 19:03:37;;;;;;;15.90;9.50;;;;;;;15.10;55.06;99404.25;223547;205;136927;-59
2023/04/18 19:08:41;;;;;;;14.60;10.20;;;;;;;15.05;55.15;99402.14;223519;183;145586;-61
2023/04/18 19:13:44;;;;;;;17.70;10.50;;;;;;;14.97;55.38;99401.27;223444;206;138748;-59
2023/04/18 19:18:49;;;;;;;14.20;9.80;;;;;;;14.93;55.46;99401.96;223438;213;137681;-58
2023/04/18 19:23:52;;;;;;;112.00;87.30;;;;;;;14.86;55.66;99399.59;223478;185;146771;-59
2023/04/18 19:28:55;;;;;;;15.80;11.00;;;;;;;14.85;55.94;99394.15;223392;216;138448;-59
2023/04/18 19:33:59;;;;;;;13.00;9.60;;;;;;;14.80;55.61;99392.42;223534;185;137259;-60
2023/04/18 19:39:02;;;;;;;13.40;9.10;;;;;;;14.72;55.73;99387.64;223486;183;145700;-60
2023/04/18 19:44:06;;;;;;;11.60;9.00;;;;;;;14.66;55.80;99389.96;223498;184;139147;-59
2023/04/18 19:49:09;;;;;;;15.90;8.30;;;;;;;14.62;55.59;99386.52;223474;183;136743;-59
2023/04/18 19:54:12;;;;;;;12.60;8.20;;;;;;;14.58;55.33;99384.32;223524;205;146786;-59
2023/04/18 19:59:16;;;;;;;12.30;7.40;;;;;;;14.53;54.63;99380.05;223469;208;140101;-59
2023/04/18 20:04:20;;;;;;;8.50;6.40;;;;;;;14.44;53.56;99377.27;223494;210;137507;-59
2023/04/18 20:09:28;;;;;;;7.50;5.10;;;;;;;14.39;53.02;99374.44;223580;216;145515;-60
2023/04/18 20:14:38;;;;;;;8.40;4.80;;;;;;;14.32;52.59;99366.88;223457;208;138132;-60
2023/04/18 20:19:41;;;;;;;6.10;4.60;;;;;;;14.28;52.49;99363.61;223471;216;138943;-59
2023/04/18 20:24:45;;;;;;;77.50;58.40;;;;;;;14.33;53.07;99363.98;223450;216;146857;-60
2023/04/18 20:29:48;;;;;;;9.40;6.10;;;;;;;14.38;52.43;99357.38;223456;216;138832;-59
2023/04/18 20:34:51;;;;;;;11.00;5.00;;;;;;;14.32;51.56;99362.42;223607;183;138353;-58
2023/04/18 20:39:55;;;;;;;9.10;5.60;;;;;;;14.30;51.86;99353.67;223626;183;145343;-60
2023/04/18 20:44:58;;;;;;;9.40;6.30;;;;;;;14.27;52.66;99352.80;223639;183;139820;-62
2023/04/18 20:50:02;;;;;;;13.10;7.90;;;;;;;14.25;53.75;99345.46;223724;183;136802;-62
2023/04/18 20:55:05;;;;;;;11.60;7.90;;;;;;;14.17;54.87;99344.65;223759;183;145255;-60
2023/04/18 21:00:09;;;;;;;14.10;9.00;;;;;;;14.06;56.20;99344.00;223624;182;139514;-62
2023/04/18 21:05:13;;;;;;;13.00;9.90;;;;;;;14.00;57.27;99341.02;223687;183;137286;-60
2023/04/18 21:10:16;;;;;;;14.40;9.90;;;;;;;13.92;57.94;99339.41;223702;183;145408;-59
2023/04/18 21:15:19;;;;;;;14.20;10.60;;;;;;;13.88;58.77;99331.71;223608;183;139003;-60
2023/04/18 21:20:22;;;;;;;13.30;9.00;;;;;;;13.85;59.62;99328.16;223451;184;138223;-61
2023/04/18 21:25:25;;;;;;;13.40;10.20;;;;;;;13.78;59.78;99322.09;223613;184;145726;-61
2023/04/18 21:30:28;;;;;;;12.90;10.10;;;;;;;13.69;60.11;99319.66;223645;183;138451;-60
2023/04/18 21:35:31;;;;;;;13.70;10.20;;;;;;;13.65;60.61;99319.94;223586;183;137953;-60
2023/04/18 21:40:36;;;;;;;12.30;10.00;;;;;;;13.62;60.99;99321.22;223722;183;145538;-59
2023/04/18 21:45:39;;;;;;;15.10;10.90;;;;;;;13.56;61.48;99317.35;223544;184;138357;-61
2023/04/18 21:50:42;;;;;;;13.70;10.40;;;;;;;13.52;62.04;99313.05;223676;183;136958;-60
2023/04/18 21:55:45;;;;;;;16.50;10.70;;;;;;;13.51;62.75;99314.17;223629;182;145739;-58
2023/04/18 22:00:49;;;;;;;13.60;10.40;;;;;;;13.49;63.29;99306.83;223622;183;138431;-58
2023/04/18 22:05:52;;;;;;;14.10;9.90;;;;;;;13.44;63.56;99304.80;223553;183;138030;-59
2023/04/18 22:10:57;;;;;;;14.40;10.20;;;;;;;13.43;64.04;99300.98;223535;184;145295;-61
2023/04/18 22:16:04;;;;;;;;;;;;;;;13.40;64.24;99296.17;223485;217;138376;-61
2023/04/18 22:21:08;;;;;;;12.50;10.10;;;;;;;13.39;64.63;99290.39;223507;183;130424;-57
2023/04/18 22:26:11;;;;;;;13.40;11.10;;;;;;;13.36;64.86;99291.68;223438;183;145285;-58
2023/04/18 22:31:14;;;;;;;17.00;11.90;;;;;;;13.32;65.22;99282.73;223482;186;138886;-57
2023/04/18 22:36:18;;;;;;;15.80;12.00;;;;;;;13.31;65.52;99279.19;223554;183;137373;-58
2023/04/18 22:41:21;;;;;;;14.00;11.40;;;;;;;13.25;65.86;99273.71;223464;184;145302;-57
2023/04/18 22:46:24;;;;;;;16.70;12.30;;;;;;;13.16;66.17;99268.27;223534;183;138915;-57
2023/04/18 22:51:27;;;;;;;18.60;11.40;;;;;;;13.14;66.66;99266.78;223548;183;137893;-57
2023/04/18 22:56:31;;;;;;;16.70;11.40;;;;;;;13.17;66.84;99261.27;223441;183;145857;-57
2023/04/18 23:01:34;;;;;;;20.40;13.10;;;;;;;13.16;67.19;99257.94;223517;183;138533;-57
2023/04/18 23:06:37;;;;;;;17.10;11.70;;;;;;;13.13;67.30;99250.27;223460;183;140669;-59
2023/04/18 23:11:40;;;;;;;20.00;13.20;;;;;;;13.14;67.58;99242.06;223490;183;146918;-53
2023/04/18 23:16:43;;;;;;;17.30;13.30;;;;;;;13.09;67.71;99232.05;223442;187;138538;-55
2023/04/18 23:21:46;;;;;;;19.50;12.00;;;;;;;13.07;68.01;99227.78;223492;183;137813;-56
2023/04/18 23:26:51;;;;;;;16.40;12.10;;;;;;;13.03;68.11;99220.30;223503;182;147636;-56